createdAt,value
2022-10-14T00:01:14.616Z,100691.97
2022-10-14T00:03:42.356Z,100698.47
2022-10-14T00:06:19.491Z,100689.53
2022-10-14T00:08:49.559Z,100698.88
2022-10-14T00:11:29.759Z,100684.13
2022-10-14T00:14:05.200Z,100689.34
2022-10-14T00:16:37.063Z,100690.72
2022-10-14T00:19:05.790Z,100680.38
2022-10-14T00:21:34.287Z,100687.16
2022-10-14T00:24:01.225Z,100686.97
2022-10-14T00:26:33.297Z,100675.78
2022-10-14T00:29:01.070Z,100679.19
2022-10-14T00:31:28.574Z,100683.69
2022-10-14T00:33:55.983Z,100681.81
2022-10-14T00:36:25.037Z,100675.72
2022-10-14T00:38:54.338Z,100672.69
2022-10-14T00:41:31.743Z,100670.81
2022-10-14T00:44:03.327Z,100665.41
2022-10-14T00:46:37.290Z,100665.03
2022-10-14T00:49:09.548Z,100658.28
2022-10-14T00:51:38.588Z,100662.91
2022-10-14T00:54:06.205Z,100670.19
2022-10-14T00:56:35.011Z,100667.75
2022-10-14T00:59:04.719Z,100659.72
2022-10-14T01:01:32.203Z,100662.09
2022-10-14T01:03:59.124Z,100657.25
2022-10-14T01:06:48.083Z,100657.16
2022-10-14T01:09:31.835Z,100663.56
2022-10-14T01:12:30.071Z,100655.94
2022-10-14T01:15:41.358Z,100660.16
2022-10-14T01:18:19.865Z,100669.31
2022-10-14T01:21:42.173Z,100662.06
2022-10-14T01:24:30.671Z,100655.41
2022-10-14T01:27:15.792Z,100656.22
2022-10-14T01:30:16.457Z,100657.59
2022-10-14T01:33:09.007Z,100648.75
2022-10-14T01:36:06.125Z,100643.13
2022-10-14T01:38:46.975Z,100647.13
2022-10-14T01:41:25.266Z,100641.75
2022-10-14T01:43:55.349Z,100642.09
2022-10-14T01:46:25.736Z,100640.22
2022-10-14T01:49:00.428Z,100634.28
2022-10-14T01:51:40.094Z,100635.16
2022-10-14T01:54:13.183Z,100630.66
2022-10-14T01:56:45.259Z,100628.09
2022-10-14T01:59:16.974Z,100626.16
2022-10-14T02:01:44.023Z,100629.22
2022-10-14T02:04:21.044Z,100623.09
2022-10-14T02:07:02.820Z,100622.41
2022-10-14T02:09:51.710Z,100620.34
2022-10-14T02:12:54.686Z,100615.75
2022-10-14T02:15:56.596Z,100603.78
2022-10-14T02:18:37.892Z,100609.53
2022-10-14T02:21:17.769Z,100621.72
2022-10-14T02:24:02.271Z,100605.94
2022-10-14T02:26:31.532Z,100619.56
2022-10-14T02:29:01.508Z,100613.25
2022-10-14T02:31:29.151Z,100613.41
2022-10-14T02:34:00.871Z,100611.94
2022-10-14T02:36:29.814Z,100609.31
2022-10-14T02:39:00.663Z,100606.34
2022-10-14T02:41:35.000Z,100605.38
2022-10-14T02:44:02.255Z,100594.91
2022-10-14T02:46:29.653Z,100596.88
2022-10-14T02:48:56.660Z,100596.88
2022-10-14T02:51:23.642Z,100593.59
2022-10-14T02:53:52.985Z,100581.53
2022-10-14T02:56:19.970Z,100598.75
2022-10-14T02:58:46.864Z,100596.13
2022-10-14T03:01:13.804Z,100598.66
2022-10-14T03:03:40.726Z,100593.75
2022-10-14T03:06:07.772Z,100596.59
2022-10-14T03:08:34.824Z,100577.03
2022-10-14T03:11:01.784Z,100576.25
2022-10-14T03:13:28.733Z,100573.00
2022-10-14T03:15:55.922Z,100573.38
2022-10-14T03:18:22.902Z,100571.22
2022-10-14T03:20:49.892Z,100575.84
2022-10-14T03:23:16.963Z,100569.66
2022-10-14T03:25:45.247Z,100571.41
2022-10-14T03:28:12.886Z,100567.28
2022-10-14T03:30:40.060Z,100577.03
2022-10-14T03:33:06.978Z,100573.22
2022-10-14T03:35:33.905Z,100575.44
2022-10-14T03:38:03.184Z,100576.41
2022-10-14T03:40:30.960Z,100566.25
2022-10-14T03:43:01.223Z,100578.22
2022-10-14T03:45:28.647Z,100575.44
2022-10-14T03:47:56.287Z,100567.28
2022-10-14T03:50:23.390Z,100563.88
2022-10-14T03:52:55.293Z,100571.72
2022-10-14T03:55:23.448Z,100560.63
2022-10-14T03:57:50.349Z,100574.94
2022-10-14T04:00:17.924Z,100570.28
2022-10-14T04:02:44.842Z,100573.41
2022-10-14T04:05:11.905Z,100565.31
2022-10-14T04:07:39.012Z,100564.81
2022-10-14T04:10:06.882Z,100569.09
2022-10-14T04:12:33.900Z,100566.69
2022-10-14T04:15:00.851Z,100556.84
2022-10-14T04:17:27.739Z,100561.09
2022-10-14T04:19:54.701Z,100558.91
2022-10-14T04:22:23.195Z,100558.69
2022-10-14T04:24:50.941Z,100545.41
2022-10-14T04:27:18.665Z,100546.16
2022-10-14T04:29:45.596Z,100534.97
2022-10-14T04:32:12.598Z,100544.16
2022-10-14T04:34:39.508Z,100536.63
2022-10-14T04:37:06.505Z,100533.88
2022-10-14T04:39:33.416Z,100524.28
2022-10-14T04:42:00.340Z,100532.06
2022-10-14T04:44:27.290Z,100510.53
2022-10-14T04:46:54.261Z,100507.13
2022-10-14T04:49:21.328Z,100512.06
2022-10-14T04:51:48.260Z,100522.28
2022-10-14T04:54:15.313Z,100516.97
2022-10-14T04:56:42.359Z,100509.22
2022-10-14T04:59:10.964Z,100519.59
2022-10-14T05:01:37.990Z,100514.13
2022-10-14T05:04:05.315Z,100537.19
2022-10-14T05:06:32.410Z,100529.16
2022-10-14T05:08:59.311Z,100531.13
2022-10-14T05:11:26.307Z,100518.56
2022-10-14T05:13:53.204Z,100526.72
2022-10-14T05:16:20.130Z,100516.25
2022-10-14T05:18:47.020Z,100517.44
2022-10-14T05:21:14.047Z,100519.97
2022-10-14T05:23:40.991Z,100520.03
2022-10-14T05:26:10.754Z,100518.78
2022-10-14T05:28:40.817Z,100523.59
2022-10-14T05:31:09.030Z,100523.16
2022-10-14T05:33:36.490Z,100517.09
2022-10-14T05:36:03.655Z,100527.41
2022-10-14T05:38:33.572Z,100516.75
2022-10-14T05:41:00.866Z,100525.81
2022-10-14T05:43:31.991Z,100530.97
2022-10-14T05:46:00.699Z,100522.03
2022-10-14T05:48:27.744Z,100519.88
2022-10-14T05:50:54.715Z,100521.06
2022-10-14T05:53:21.652Z,100515.56
2022-10-14T05:55:48.668Z,100513.03
2022-10-14T05:58:15.692Z,100515.75
2022-10-14T06:00:42.586Z,100522.06
2022-10-14T06:03:13.196Z,100522.31
2022-10-14T06:05:40.224Z,100515.88
2022-10-14T06:08:07.183Z,100530.34
2022-10-14T06:10:35.968Z,100535.09
2022-10-14T06:13:03.079Z,100535.22
2022-10-14T06:15:30.031Z,100526.72
2022-10-14T06:17:56.958Z,100531.03
2022-10-14T06:20:23.954Z,100523.41
2022-10-14T06:22:50.880Z,100526.97
2022-10-14T06:25:17.809Z,100523.66
2022-10-14T06:27:44.745Z,100532.03
2022-10-14T06:30:12.599Z,100532.16
2022-10-14T06:32:39.520Z,100533.69
2022-10-14T06:35:07.261Z,100534.69
2022-10-14T06:37:34.235Z,100537.25
2022-10-14T06:40:01.227Z,100536.72
2022-10-14T06:42:28.248Z,100530.25
2022-10-14T06:44:55.174Z,100531.31
2022-10-14T06:47:22.086Z,100533.84
2022-10-14T06:49:48.983Z,100530.25
2022-10-14T06:52:15.925Z,100536.38
2022-10-14T06:54:48.045Z,100549.34
2022-10-14T06:57:15.860Z,100556.56
2022-10-14T06:59:43.068Z,100542.81
2022-10-14T07:02:10.779Z,100548.97
2022-10-14T07:04:39.308Z,100548.84
2022-10-14T07:07:08.508Z,100541.81
2022-10-14T07:09:35.473Z,100542.25
2022-10-14T07:12:02.393Z,100541.63
2022-10-14T07:14:29.329Z,100542.47
2022-10-14T07:16:56.241Z,100549.94
2022-10-14T07:19:23.184Z,100540.31
2022-10-14T07:21:50.201Z,100545.56
2022-10-14T07:24:17.164Z,100541.16
2022-10-14T07:26:44.111Z,100542.28
2022-10-14T07:29:11.082Z,100536.16
2022-10-14T07:31:38.010Z,100536.88
2022-10-14T07:34:05.140Z,100545.56
2022-10-14T07:36:32.066Z,100534.19
2022-10-14T07:38:59.049Z,100541.25
2022-10-14T07:41:26.639Z,100533.28
2022-10-14T07:44:02.022Z,100536.16
2022-10-14T07:46:32.293Z,100542.13
2022-10-14T07:49:13.725Z,100532.56
2022-10-14T07:51:42.558Z,100539.31
2022-10-14T07:54:19.604Z,100535.16
2022-10-14T07:56:49.457Z,100532.66
2022-10-14T07:59:18.931Z,100529.03
2022-10-14T08:01:51.315Z,100525.28
2022-10-14T08:04:18.942Z,100522.28
2022-10-14T08:06:48.697Z,100520.75
2022-10-14T08:09:16.868Z,100516.00
2022-10-14T08:11:44.572Z,100524.31
2022-10-14T08:14:12.019Z,100516.53
2022-10-14T08:16:40.514Z,100517.94
2022-10-14T08:19:14.126Z,100529.47
2022-10-14T08:21:42.788Z,100510.41
2022-10-14T08:24:10.270Z,100510.09
2022-10-14T08:26:53.585Z,100520.66
2022-10-14T08:29:22.669Z,100519.28
2022-10-14T08:31:51.422Z,100522.44
2022-10-14T08:34:21.213Z,100532.88
2022-10-14T08:36:49.076Z,100525.91
2022-10-14T08:39:19.356Z,100537.34
2022-10-14T08:42:07.299Z,100548.59
2022-10-14T08:44:43.768Z,100539.41
2022-10-14T08:47:26.916Z,100541.03
2022-10-14T08:50:10.538Z,100541.84
2022-10-14T08:52:50.891Z,100535.94
2022-10-14T08:55:50.854Z,100532.72
2022-10-14T08:58:39.995Z,100517.47
2022-10-14T09:01:31.661Z,100528.09
2022-10-14T09:04:07.894Z,100517.31
2022-10-14T09:06:38.687Z,100518.56
2022-10-14T09:09:28.447Z,100517.53
2022-10-14T09:12:01.787Z,100517.78
2022-10-14T09:14:37.327Z,100512.41
2022-10-14T09:17:20.078Z,100519.00
2022-10-14T09:20:23.278Z,100516.47
2022-10-14T09:23:15.720Z,100509.56
2022-10-14T09:26:07.108Z,100510.75
2022-10-14T09:28:38.954Z,100518.78
2022-10-14T09:31:10.612Z,100520.63
2022-10-14T09:33:42.594Z,100512.34
2022-10-14T09:36:21.004Z,100498.97
2022-10-14T09:38:52.965Z,100501.81
2022-10-14T09:41:30.793Z,100509.91
2022-10-14T09:44:22.455Z,100531.34
2022-10-14T09:47:08.176Z,100507.38
2022-10-14T09:49:47.950Z,100512.03
2022-10-14T09:52:24.444Z,100518.16
2022-10-14T09:54:58.668Z,100506.03
2022-10-14T09:57:26.218Z,100510.66
2022-10-14T10:00:04.955Z,100516.72
2022-10-14T10:02:42.315Z,100503.56
2022-10-14T10:05:29.826Z,100500.59
2022-10-14T10:08:14.485Z,100505.78
2022-10-14T10:10:41.706Z,100500.72
2022-10-14T10:13:32.747Z,100499.78
2022-10-14T10:16:03.954Z,100488.38
2022-10-14T10:18:31.181Z,100499.28
2022-10-14T10:21:33.096Z,100497.97
2022-10-14T10:24:03.632Z,100506.19
2022-10-14T10:26:33.943Z,100496.53
2022-10-14T10:29:04.778Z,100500.75
2022-10-14T10:31:50.097Z,100494.81
2022-10-14T10:34:36.612Z,100490.66
2022-10-14T10:37:19.907Z,100503.13
2022-10-14T10:40:31.803Z,100484.38
2022-10-14T10:43:31.435Z,100483.56
2022-10-14T10:46:28.285Z,100486.34
2022-10-14T10:49:03.586Z,100474.78
2022-10-14T10:51:49.206Z,100476.50
2022-10-14T10:55:11.983Z,100476.56
2022-10-14T10:58:14.418Z,100473.78
2022-10-14T11:01:50.113Z,100479.22
2022-10-14T11:04:46.753Z,100472.09
2022-10-14T11:07:51.678Z,100467.59
2022-10-14T11:10:57.594Z,100463.09
2022-10-14T11:13:49.432Z,100464.97
2022-10-14T11:16:35.371Z,100456.97
2022-10-14T11:19:22.202Z,100451.63
2022-10-14T11:22:24.398Z,100452.50
2022-10-14T11:25:25.622Z,100456.94
2022-10-14T11:28:15.885Z,100454.28
2022-10-14T11:31:27.480Z,100450.69
2022-10-14T11:34:29.210Z,100453.34
2022-10-14T11:37:43.059Z,100441.72
2022-10-14T11:40:40.761Z,100437.34
2022-10-14T11:43:13.637Z,100440.84
2022-10-14T11:46:05.275Z,100434.56
2022-10-14T11:49:04.004Z,100443.56
2022-10-14T11:51:42.249Z,100438.19
2022-10-14T11:54:53.817Z,100428.28
2022-10-14T11:57:58.245Z,100426.28
2022-10-14T12:00:31.037Z,100428.97
2022-10-14T12:03:24.113Z,100426.31
2022-10-14T12:06:04.996Z,100420.09
2022-10-14T12:09:14.925Z,100429.88
2022-10-14T12:11:52.340Z,100426.38
2022-10-14T12:14:36.313Z,100412.28
2022-10-14T12:17:19.256Z,100417.66
2022-10-14T12:19:46.596Z,100417.66
2022-10-14T12:22:21.358Z,100412.31
2022-10-14T12:24:56.505Z,100407.78
2022-10-14T12:27:27.224Z,100411.28
2022-10-14T12:29:58.942Z,100410.50
2022-10-14T12:32:31.017Z,100406.88
2022-10-14T12:35:02.255Z,100405.00
2022-10-14T12:37:32.680Z,100396.16
2022-10-14T12:40:02.944Z,100404.94
2022-10-14T12:42:36.455Z,100402.22
2022-10-14T12:45:16.642Z,100402.16
2022-10-14T12:47:44.108Z,100390.53
2022-10-14T12:50:14.074Z,100394.16
2022-10-14T12:52:46.518Z,100392.53
2022-10-14T12:55:23.919Z,100400.69
2022-10-14T12:58:02.910Z,100393.53
2022-10-14T13:00:39.607Z,100397.06
2022-10-14T13:03:20.484Z,100386.41
2022-10-14T13:05:47.972Z,100398.84
2022-10-14T13:08:21.101Z,100401.41
2022-10-14T13:10:50.480Z,100398.88
2022-10-14T13:13:40.042Z,100390.72
2022-10-14T13:16:25.751Z,100390.72
2022-10-14T13:19:01.329Z,100388.91
2022-10-14T13:21:37.456Z,100392.44
2022-10-14T13:24:24.155Z,100389.75
2022-10-14T13:26:53.894Z,100385.44
2022-10-14T13:29:20.694Z,100387.88
2022-10-14T13:31:54.136Z,100384.19
2022-10-14T13:34:36.403Z,100388.69
2022-10-14T13:37:32.586Z,100383.25
2022-10-14T13:40:17.619Z,100385.84
2022-10-14T13:42:52.109Z,100382.47
2022-10-14T13:45:22.454Z,100378.78
2022-10-14T13:47:50.232Z,100380.59
2022-10-14T13:50:24.163Z,100381.59
2022-10-14T13:52:58.796Z,100383.25
2022-10-14T13:55:27.207Z,100372.44
2022-10-14T13:58:12.567Z,100390.38
2022-10-14T14:00:51.499Z,100373.38
2022-10-14T14:03:43.435Z,100381.38
2022-10-14T14:06:17.457Z,100385.78
2022-10-14T14:08:56.807Z,100384.00
2022-10-14T14:11:35.343Z,100379.44
2022-10-14T14:14:31.017Z,100381.34
2022-10-14T14:17:01.243Z,100370.56
2022-10-14T14:19:37.751Z,100370.53
2022-10-14T14:22:29.372Z,100378.41
2022-10-14T14:25:33.308Z,100376.78
2022-10-14T14:28:05.805Z,100373.13
2022-10-14T14:30:38.857Z,100372.25
2022-10-14T14:33:12.281Z,100364.16
2022-10-14T14:35:55.891Z,100356.88
2022-10-14T14:38:32.752Z,100365.59
2022-10-14T14:41:16.819Z,100359.22
2022-10-14T14:43:53.355Z,100353.94
2022-10-14T14:46:40.250Z,100362.84
2022-10-14T14:49:11.748Z,100353.94
2022-10-14T14:51:40.622Z,100362.03
2022-10-14T14:54:08.388Z,100369.81
2022-10-14T14:56:44.202Z,100362.81
2022-10-14T14:59:36.591Z,100365.38
2022-10-14T15:02:14.873Z,100360.03
2022-10-14T15:04:42.322Z,100355.63
2022-10-14T15:07:21.556Z,100347.53
2022-10-14T15:09:55.787Z,100352.81
2022-10-14T15:12:31.172Z,100355.22
2022-10-14T15:15:00.635Z,100351.81
2022-10-14T15:17:39.797Z,100346.31
2022-10-14T15:20:27.297Z,100346.25
2022-10-14T15:22:54.250Z,100349.72
2022-10-14T15:25:32.163Z,100347.88
2022-10-14T15:28:02.010Z,100350.34
2022-10-14T15:30:36.647Z,100349.38
2022-10-14T15:33:19.324Z,100338.59
2022-10-14T15:36:00.435Z,100343.78
2022-10-14T15:38:28.234Z,100335.00
2022-10-14T15:40:55.881Z,100340.44
2022-10-14T15:43:25.890Z,100339.31
2022-10-14T15:46:14.540Z,100346.63
2022-10-14T15:48:54.924Z,100341.22
2022-10-14T15:51:23.593Z,100338.44
2022-10-14T15:53:51.841Z,100342.97
2022-10-14T15:56:21.023Z,100343.69
2022-10-14T15:58:48.824Z,100342.06
2022-10-14T16:01:23.790Z,100352.50
2022-10-14T16:03:55.543Z,100344.41
2022-10-14T16:06:24.184Z,100350.53
2022-10-14T16:08:51.191Z,100346.84
2022-10-14T16:11:28.892Z,100360.31
2022-10-14T16:13:56.796Z,100355.06
2022-10-14T16:16:50.296Z,100349.47
2022-10-14T16:19:17.269Z,100348.53
2022-10-14T16:21:44.333Z,100359.22
2022-10-14T16:24:20.987Z,100346.91
2022-10-14T16:26:51.378Z,100359.31
2022-10-14T16:29:20.302Z,100360.28
2022-10-14T16:31:50.057Z,100357.44
2022-10-14T16:34:19.306Z,100355.50
2022-10-14T16:36:48.855Z,100350.97
2022-10-14T16:39:17.290Z,100347.06
2022-10-14T16:41:44.822Z,100350.00
2022-10-14T16:44:27.615Z,100359.50
2022-10-14T16:47:19.571Z,100364.25
2022-10-14T16:49:51.119Z,100352.69
2022-10-14T16:52:19.168Z,100352.19
2022-10-14T16:54:46.456Z,100357.81
2022-10-14T16:57:14.213Z,100351.63
2022-10-14T16:59:41.678Z,100361.22
2022-10-14T17:02:14.268Z,100365.56
2022-10-14T17:04:42.146Z,100350.28
2022-10-14T17:07:10.268Z,100367.31
2022-10-14T17:09:39.419Z,100360.38
2022-10-14T17:12:11.179Z,100360.19
2022-10-14T17:14:41.026Z,100358.63
2022-10-14T17:17:08.009Z,100357.72
2022-10-14T17:19:35.459Z,100355.91
2022-10-14T17:22:03.219Z,100354.94
2022-10-14T17:24:30.527Z,100358.38
2022-10-14T17:26:58.675Z,100361.19
2022-10-14T17:29:25.636Z,100359.56
2022-10-14T17:31:52.606Z,100357.00
2022-10-14T17:34:19.539Z,100347.19
2022-10-14T17:36:46.539Z,100355.75
2022-10-14T17:39:18.946Z,100350.56
2022-10-14T17:41:51.568Z,100354.63
2022-10-14T17:44:18.886Z,100357.25
2022-10-14T17:46:45.966Z,100350.41
2022-10-14T17:49:13.247Z,100353.16
2022-10-14T17:51:40.190Z,100354.94
2022-10-14T17:54:11.030Z,100348.00
2022-10-14T17:56:38.975Z,100342.97
2022-10-14T17:59:11.106Z,100344.84
2022-10-14T18:04:25.403Z,100356.16
2022-10-14T18:06:54.185Z,100343.75
2022-10-14T18:09:21.290Z,100340.88
2022-10-14T18:14:41.534Z,100347.75
2022-10-14T18:17:12.836Z,100338.91
2022-10-14T18:19:41.111Z,100327.72
2022-10-14T18:22:08.328Z,100336.16
2022-10-14T18:24:38.728Z,100331.56
2022-10-14T18:27:05.876Z,100335.06
2022-10-14T18:29:32.820Z,100325.94
2022-10-14T18:31:59.800Z,100338.56
2022-10-14T18:34:28.263Z,100334.97
2022-10-14T18:36:55.204Z,100341.19
2022-10-14T18:39:22.478Z,100328.59
2022-10-14T18:41:49.645Z,100339.50
2022-10-14T18:44:16.689Z,100337.59
2022-10-14T18:46:43.702Z,100343.47
2022-10-14T18:49:11.899Z,100349.56
2022-10-14T18:51:41.010Z,100353.50
2022-10-14T18:54:19.174Z,100341.28
2022-10-14T18:56:46.672Z,100345.56
2022-10-14T18:59:23.149Z,100338.66
2022-10-14T19:01:54.136Z,100343.03
2022-10-14T19:04:24.994Z,100344.66
2022-10-14T19:06:52.064Z,100346.31
2022-10-14T19:09:22.364Z,100340.97
2022-10-14T19:11:53.022Z,100336.38
2022-10-14T19:14:20.912Z,100338.28
2022-10-14T19:16:49.571Z,100340.41
2022-10-14T19:19:19.799Z,100339.19
2022-10-14T19:21:50.741Z,100339.84
2022-10-14T19:24:18.130Z,100327.66
2022-10-14T19:26:47.274Z,100331.13
2022-10-14T19:29:15.981Z,100324.13
2022-10-14T19:31:44.087Z,100316.63
2022-10-14T19:34:15.321Z,100334.03
2022-10-14T19:36:44.097Z,100325.09
2022-10-14T19:39:15.194Z,100323.38
2022-10-14T19:41:47.266Z,100320.44
2022-10-14T19:44:16.087Z,100326.03
2022-10-14T19:46:44.397Z,100322.44
2022-10-14T19:49:14.418Z,100322.31
2022-10-14T19:51:41.670Z,100327.84
2022-10-14T19:54:12.434Z,100328.84
2022-10-14T19:56:39.710Z,100324.38
2022-10-14T19:59:06.949Z,100325.72
2022-10-14T20:01:34.277Z,100333.63
2022-10-14T20:04:02.373Z,100320.44
2022-10-14T20:06:33.779Z,100329.13
2022-10-14T20:09:00.983Z,100331.13
2022-10-14T20:11:28.619Z,100316.94
2022-10-14T20:13:55.600Z,100322.78
2022-10-14T20:16:22.721Z,100320.34
2022-10-14T20:18:49.660Z,100323.72
2022-10-14T20:21:16.989Z,100321.03
2022-10-14T20:23:44.649Z,100325.13
2022-10-14T20:26:21.055Z,100320.22
2022-10-14T20:28:49.870Z,100323.59
2022-10-14T20:31:21.067Z,100320.53
2022-10-14T20:33:48.439Z,100324.16
2022-10-14T20:36:18.725Z,100318.22
2022-10-14T20:38:47.212Z,100315.22
2022-10-14T20:41:22.804Z,100308.13
2022-10-14T20:43:50.502Z,100304.63
2022-10-14T20:46:18.347Z,100304.81
2022-10-14T20:48:46.549Z,100306.28
2022-10-14T20:51:19.995Z,100301.09
2022-10-14T20:53:46.969Z,100299.44
2022-10-14T20:56:14.814Z,100302.09
2022-10-14T20:58:42.534Z,100291.41
2022-10-14T21:01:16.065Z,100306.06
2022-10-14T21:03:45.511Z,100307.03
2022-10-14T21:06:17.082Z,100295.47
2022-10-14T21:08:44.308Z,100290.97
2022-10-14T21:11:16.037Z,100297.91
2022-10-14T21:13:58.557Z,100300.53
2022-10-14T21:16:32.307Z,100297.09
2022-10-14T21:19:05.464Z,100293.56
2022-10-14T21:21:49.313Z,100289.72
2022-10-14T21:24:18.524Z,100280.84
2022-10-14T21:26:48.579Z,100287.84
2022-10-14T21:29:15.725Z,100287.72
2022-10-14T21:31:43.193Z,100283.22
2022-10-14T21:34:11.618Z,100283.72
2022-10-14T21:36:39.790Z,100278.78
2022-10-14T21:39:13.484Z,100280.53
2022-10-14T21:41:41.647Z,100285.47
2022-10-14T21:44:13.461Z,100277.47
2022-10-14T21:46:40.550Z,100280.13
2022-10-14T21:49:11.095Z,100279.03
2022-10-14T21:51:38.983Z,100273.13
2022-10-14T21:54:06.438Z,100272.16
2022-10-14T21:56:33.462Z,100266.91
2022-10-14T21:59:00.355Z,100268.44
2022-10-14T22:01:29.858Z,100270.91
2022-10-14T22:04:06.378Z,100258.69
2022-10-14T22:06:35.806Z,100261.13
2022-10-14T22:09:06.123Z,100257.06
2022-10-14T22:11:40.168Z,100262.75
2022-10-14T22:14:12.509Z,100258.53
2022-10-14T22:16:39.856Z,100255.53
2022-10-14T22:19:07.375Z,100254.72
2022-10-14T22:21:36.984Z,100256.53
2022-10-14T22:24:05.392Z,100261.09
2022-10-14T22:26:33.316Z,100256.47
2022-10-14T22:29:06.381Z,100262.38
2022-10-14T22:31:34.662Z,100254.50
2022-10-14T22:34:04.582Z,100254.56
2022-10-14T22:36:32.565Z,100253.63
2022-10-14T22:39:01.932Z,100250.25
2022-10-14T22:41:34.980Z,100244.59
2022-10-14T22:44:05.061Z,100251.38
2022-10-14T22:46:35.069Z,100255.59
2022-10-14T22:49:02.474Z,100255.47
2022-10-14T22:51:40.622Z,100253.31
2022-10-14T22:54:09.104Z,100252.75
2022-10-14T22:56:36.695Z,100246.16
2022-10-14T22:59:11.509Z,100253.78
2022-10-14T23:01:41.367Z,100256.63
2022-10-14T23:04:10.007Z,100255.97
2022-10-14T23:06:37.281Z,100253.22
2022-10-14T23:09:04.430Z,100248.53
2022-10-14T23:11:32.246Z,100242.31
2022-10-14T23:14:01.568Z,100250.44
2022-10-14T23:16:31.639Z,100255.75
2022-10-14T23:18:59.648Z,100256.47
2022-10-14T23:21:33.295Z,100256.22
2022-10-14T23:24:04.733Z,100247.34
2022-10-14T23:26:34.461Z,100248.31
2022-10-14T23:29:09.956Z,100256.19
2022-10-14T23:31:39.207Z,100250.97
2022-10-14T23:34:11.132Z,100247.53
2022-10-14T23:36:38.297Z,100247.47
2022-10-14T23:39:06.212Z,100244.56
2022-10-14T23:41:33.139Z,100247.44
2022-10-14T23:44:00.148Z,100247.25
2022-10-14T23:46:27.083Z,100244.63
2022-10-14T23:49:06.841Z,100241.88
2022-10-14T23:51:41.228Z,100256.03
2022-10-14T23:54:08.637Z,100242.66
2022-10-14T23:56:35.573Z,100240.94
2022-10-14T23:59:02.494Z,100239.78
